sensor_id;sensor_type;location;lat;lon;timestamp;temperature;humidity
35240;DHT22;21376;50.954;4.716;2022-11-11T00:00:24;9.60;99.90
35240;DHT22;21376;50.954;4.716;2022-11-11T00:05:52;9.70;99.90
35240;DHT22;21376;50.954;4.716;2022-11-11T00:08:19;9.60;99.90
35240;DHT22;21376;50.954;4.716;2022-11-11T00:13:18;9.60;99.90
35240;DHT22;21376;50.954;4.716;2022-11-11T00:15:53;9.50;99.90
35240;DHT22;21376;50.954;4.716;2022-11-11T00:18:19;9.40;99.90
35240;DHT22;21376;50.954;4.716;2022-11-11T00:21:21;9.50;99.90
35240;DHT22;21376;50.954;4.716;2022-11-11T00:27:12;9.40;99.90
35240;DHT22;21376;50.954;4.716;2022-11-11T00:29:40;9.20;99.90
35240;DHT22;21376;50.954;4.716;2022-11-11T00:32:10;9.30;99.90
35240;DHT22;21376;50.954;4.716;2022-11-11T00:34:58;9.40;99.90
35240;DHT22;21376;50.954;4.716;2022-11-11T00:37:43;9.40;99.90
35240;DHT22;21376;50.954;4.716;2022-11-11T00:43:00;9.20;99.90
35240;DHT22;21376;50.954;4.716;2022-11-11T00:45:27;9.00;99.90
35240;DHT22;21376;50.954;4.716;2022-11-11T00:50:44;9.10;99.90
35240;DHT22;21376;50.954;4.716;2022-11-11T00:53:25;9.00;99.90
35240;DHT22;21376;50.954;4.716;2022-11-11T00:58:19;9.00;99.90
35240;DHT22;21376;50.954;4.716;2022-11-11T01:00:54;8.80;99.90
35240;DHT22;21376;50.954;4.716;2022-11-11T01:05:51;8.80;99.90
35240;DHT22;21376;50.954;4.716;2022-11-11T01:08:18;8.80;99.90
35240;DHT22;21376;50.954;4.716;2022-11-11T01:11:00;8.70;99.90
35240;DHT22;21376;50.954;4.716;2022-11-11T01:13:31;8.80;99.90
35240;DHT22;21376;50.954;4.716;2022-11-11T01:15:58;8.90;99.90
35240;DHT22;21376;50.954;4.716;2022-11-11T01:18:24;9.00;99.90
35240;DHT22;21376;50.954;4.716;2022-11-11T01:23:35;8.80;99.90
35240;DHT22;21376;50.954;4.716;2022-11-11T01:26:09;8.90;99.90
35240;DHT22;21376;50.954;4.716;2022-11-11T01:31:09;8.80;99.90
35240;DHT22;21376;50.954;4.716;2022-11-11T01:41:22;9.00;99.90
35240;DHT22;21376;50.954;4.716;2022-11-11T01:44:02;9.00;99.90
35240;DHT22;21376;50.954;4.716;2022-11-11T01:46:32;9.10;99.90
35240;DHT22;21376;50.954;4.716;2022-11-11T01:49:08;9.10;99.90
35240;DHT22;21376;50.954;4.716;2022-11-11T01:54:36;9.00;99.90
35240;DHT22;21376;50.954;4.716;2022-11-11T01:57:03;8.90;99.90
35240;DHT22;21376;50.954;4.716;2022-11-11T01:59:31;9.10;99.90
35240;DHT22;21376;50.954;4.716;2022-11-11T02:01:58;9.10;99.90
35240;DHT22;21376;50.954;4.716;2022-11-11T02:04:32;9.10;99.90
35240;DHT22;21376;50.954;4.716;2022-11-11T02:07:18;9.10;99.90
35240;DHT22;21376;50.954;4.716;2022-11-11T02:09:45;9.10;99.90
35240;DHT22;21376;50.954;4.716;2022-11-11T02:12:13;9.30;99.90
35240;DHT22;21376;50.954;4.716;2022-11-11T02:17:27;9.40;99.90
35240;DHT22;21376;50.954;4.716;2022-11-11T02:19:59;9.30;99.90
35240;DHT22;21376;50.954;4.716;2022-11-11T02:25:01;9.20;99.90
35240;DHT22;21376;50.954;4.716;2022-11-11T02:27:29;9.20;99.90
35240;DHT22;21376;50.954;4.716;2022-11-11T02:29:56;9.30;99.90
35240;DHT22;21376;50.954;4.716;2022-11-11T02:32:24;9.40;99.90
35240;DHT22;21376;50.954;4.716;2022-11-11T02:34:55;9.50;99.90
35240;DHT22;21376;50.954;4.716;2022-11-11T02:37:24;9.50;99.90
35240;DHT22;21376;50.954;4.716;2022-11-11T02:39:53;9.40;99.90
35240;DHT22;21376;50.954;4.716;2022-11-11T02:42:22;9.40;99.90
35240;DHT22;21376;50.954;4.716;2022-11-11T02:44:54;9.50;99.90
35240;DHT22;21376;50.954;4.716;2022-11-11T02:47:26;9.60;99.90
35240;DHT22;21376;50.954;4.716;2022-11-11T02:49:59;9.50;99.90
35240;DHT22;21376;50.954;4.716;2022-11-11T02:52:31;9.60;99.90
35240;DHT22;21376;50.954;4.716;2022-11-11T02:55:00;9.50;99.90
35240;DHT22;21376;50.954;4.716;2022-11-11T03:02:28;9.70;99.90
35240;DHT22;21376;50.954;4.716;2022-11-11T03:04:56;9.70;99.90
35240;DHT22;21376;50.954;4.716;2022-11-11T03:07:25;9.80;99.90
35240;DHT22;21376;50.954;4.716;2022-11-11T03:09:52;9.70;99.90
35240;DHT22;21376;50.954;4.716;2022-11-11T03:12:24;9.60;99.90
35240;DHT22;21376;50.954;4.716;2022-11-11T03:14:51;9.80;99.90
35240;DHT22;21376;50.954;4.716;2022-11-11T03:20:23;9.60;99.90
35240;DHT22;21376;50.954;4.716;2022-11-11T03:23:12;9.60;99.90
35240;DHT22;21376;50.954;4.716;2022-11-11T03:25:41;9.60;99.90
35240;DHT22;21376;50.954;4.716;2022-11-11T03:28:18;9.70;99.90
35240;DHT22;21376;50.954;4.716;2022-11-11T03:30:45;9.50;99.90
35240;DHT22;21376;50.954;4.716;2022-11-11T03:33:21;9.60;99.90
35240;DHT22;21376;50.954;4.716;2022-11-11T03:35:50;9.40;99.90
35240;DHT22;21376;50.954;4.716;2022-11-11T03:38:21;9.10;99.90
35240;DHT22;21376;50.954;4.716;2022-11-11T03:40:53;9.10;99.90
35240;DHT22;21376;50.954;4.716;2022-11-11T03:43:23;9.20;99.90
35240;DHT22;21376;50.954;4.716;2022-11-11T03:48:22;9.10;99.90
35240;DHT22;21376;50.954;4.716;2022-11-11T03:53:20;9.00;99.90
35240;DHT22;21376;50.954;4.716;2022-11-11T03:58:23;9.00;99.90
35240;DHT22;21376;50.954;4.716;2022-11-11T04:00:49;9.10;99.90
35240;DHT22;21376;50.954;4.716;2022-11-11T04:03:18;9.10;99.90
35240;DHT22;21376;50.954;4.716;2022-11-11T04:06:04;9.10;99.90
35240;DHT22;21376;50.954;4.716;2022-11-11T04:08:49;9.20;99.90
35240;DHT22;21376;50.954;4.716;2022-11-11T04:11:39;9.00;99.90
35240;DHT22;21376;50.954;4.716;2022-11-11T04:14:08;9.00;99.90
35240;DHT22;21376;50.954;4.716;2022-11-11T04:16:54;8.90;99.90
35240;DHT22;21376;50.954;4.716;2022-11-11T04:19:23;8.80;99.90
35240;DHT22;21376;50.954;4.716;2022-11-11T04:22:11;8.70;99.90
35240;DHT22;21376;50.954;4.716;2022-11-11T04:24:38;8.70;99.90
35240;DHT22;21376;50.954;4.716;2022-11-11T04:30:09;8.60;99.90
35240;DHT22;21376;50.954;4.716;2022-11-11T04:32:38;8.70;99.90
35240;DHT22;21376;50.954;4.716;2022-11-11T04:35:06;8.60;99.90
35240;DHT22;21376;50.954;4.716;2022-11-11T04:37:33;8.50;99.90
35240;DHT22;21376;50.954;4.716;2022-11-11T04:40:03;8.40;99.90
35240;DHT22;21376;50.954;4.716;2022-11-11T04:42:51;8.40;99.90
35240;DHT22;21376;50.954;4.716;2022-11-11T04:45:20;8.60;99.90
35240;DHT22;21376;50.954;4.716;2022-11-11T04:48:14;8.50;99.90
35240;DHT22;21376;50.954;4.716;2022-11-11T04:51:01;8.30;99.90
35240;DHT22;21376;50.954;4.716;2022-11-11T04:53:28;8.10;99.90
35240;DHT22;21376;50.954;4.716;2022-11-11T04:55:55;8.30;99.90
35240;DHT22;21376;50.954;4.716;2022-11-11T05:01:14;8.30;99.90
35240;DHT22;21376;50.954;4.716;2022-11-11T05:06:47;8.10;99.90
35240;DHT22;21376;50.954;4.716;2022-11-11T05:09:35;8.20;99.90
35240;DHT22;21376;50.954;4.716;2022-11-11T05:12:00;8.20;99.90
35240;DHT22;21376;50.954;4.716;2022-11-11T05:14:27;8.20;99.90
35240;DHT22;21376;50.954;4.716;2022-11-11T05:17:26;8.20;99.90
35240;DHT22;21376;50.954;4.716;2022-11-11T05:20:20;8.10;99.90
35240;DHT22;21376;50.954;4.716;2022-11-11T05:23:23;8.00;99.90
35240;DHT22;21376;50.954;4.716;2022-11-11T05:26:09;8.00;99.90
35240;DHT22;21376;50.954;4.716;2022-11-11T05:28:37;8.00;99.90
35240;DHT22;21376;50.954;4.716;2022-11-11T05:31:09;8.00;99.90
35240;DHT22;21376;50.954;4.716;2022-11-11T05:33:48;8.00;99.90
35240;DHT22;21376;50.954;4.716;2022-11-11T05:36:17;8.00;99.90
35240;DHT22;21376;50.954;4.716;2022-11-11T05:38:43;8.10;99.90
35240;DHT22;21376;50.954;4.716;2022-11-11T05:41:12;8.10;99.90
35240;DHT22;21376;50.954;4.716;2022-11-11T05:46:39;7.90;99.90
35240;DHT22;21376;50.954;4.716;2022-11-11T05:49:08;7.90;99.90
35240;DHT22;21376;50.954;4.716;2022-11-11T05:54:28;7.80;99.90
35240;DHT22;21376;50.954;4.716;2022-11-11T05:56:57;7.70;99.90
35240;DHT22;21376;50.954;4.716;2022-11-11T05:59:38;7.70;99.90
35240;DHT22;21376;50.954;4.716;2022-11-11T06:05:02;7.50;99.90
35240;DHT22;21376;50.954;4.716;2022-11-11T06:10:00;7.60;99.90
35240;DHT22;21376;50.954;4.716;2022-11-11T06:12:47;7.60;99.90
35240;DHT22;21376;50.954;4.716;2022-11-11T06:24:53;7.50;99.90
35240;DHT22;21376;50.954;4.716;2022-11-11T06:35:36;7.20;99.90
35240;DHT22;21376;50.954;4.716;2022-11-11T06:38:02;7.10;99.90
35240;DHT22;21376;50.954;4.716;2022-11-11T06:40:29;6.90;99.90
35240;DHT22;21376;50.954;4.716;2022-11-11T06:42:59;7.00;99.90
35240;DHT22;21376;50.954;4.716;2022-11-11T06:45:29;7.00;99.90
35240;DHT22;21376;50.954;4.716;2022-11-11T06:50:20;6.90;99.90
35240;DHT22;21376;50.954;4.716;2022-11-11T06:52:46;7.00;99.90
35240;DHT22;21376;50.954;4.716;2022-11-11T06:55:12;6.90;99.90
35240;DHT22;21376;50.954;4.716;2022-11-11T06:57:43;7.00;99.90
35240;DHT22;21376;50.954;4.716;2022-11-11T07:00:09;7.10;99.90
35240;DHT22;21376;50.954;4.716;2022-11-11T07:02:35;7.00;99.90
35240;DHT22;21376;50.954;4.716;2022-11-11T07:05:03;7.00;99.90
35240;DHT22;21376;50.954;4.716;2022-11-11T07:07:30;6.90;99.90
35240;DHT22;21376;50.954;4.716;2022-11-11T07:09:59;7.00;99.90
35240;DHT22;21376;50.954;4.716;2022-11-11T07:12:25;7.20;99.90
35240;DHT22;21376;50.954;4.716;2022-11-11T07:14:54;7.30;99.90
35240;DHT22;21376;50.954;4.716;2022-11-11T07:17:20;7.60;99.90
35240;DHT22;21376;50.954;4.716;2022-11-11T07:24:56;7.80;99.90
35240;DHT22;21376;50.954;4.716;2022-11-11T07:27:22;7.90;99.90
35240;DHT22;21376;50.954;4.716;2022-11-11T07:29:49;7.90;99.90
35240;DHT22;21376;50.954;4.716;2022-11-11T07:32:18;7.80;99.90
35240;DHT22;21376;50.954;4.716;2022-11-11T07:34:46;7.70;99.90
35240;DHT22;21376;50.954;4.716;2022-11-11T07:37:12;7.50;99.90
35240;DHT22;21376;50.954;4.716;2022-11-11T07:39:39;7.60;99.90
35240;DHT22;21376;50.954;4.716;2022-11-11T07:42:07;7.80;99.90
35240;DHT22;21376;50.954;4.716;2022-11-11T07:47:07;7.70;99.90
35240;DHT22;21376;50.954;4.716;2022-11-11T07:49:36;7.50;99.90
35240;DHT22;21376;50.954;4.716;2022-11-11T07:52:05;7.80;99.90
35240;DHT22;21376;50.954;4.716;2022-11-11T07:54:34;8.00;99.90
35240;DHT22;21376;50.954;4.716;2022-11-11T07:57:02;8.00;99.90
35240;DHT22;21376;50.954;4.716;2022-11-11T08:02:00;7.90;99.90
35240;DHT22;21376;50.954;4.716;2022-11-11T08:07:42;8.10;99.90
35240;DHT22;21376;50.954;4.716;2022-11-11T08:10:08;8.10;99.90
35240;DHT22;21376;50.954;4.716;2022-11-11T08:12:39;8.00;99.90
35240;DHT22;21376;50.954;4.716;2022-11-11T08:17:56;8.40;99.90
35240;DHT22;21376;50.954;4.716;2022-11-11T08:20:24;8.50;99.90
35240;DHT22;21376;50.954;4.716;2022-11-11T08:25:23;8.60;99.90
35240;DHT22;21376;50.954;4.716;2022-11-11T08:28:00;8.70;99.90
35240;DHT22;21376;50.954;4.716;2022-11-11T08:33:02;9.90;99.90
35240;DHT22;21376;50.954;4.716;2022-11-11T08:35:31;10.10;99.90
35240;DHT22;21376;50.954;4.716;2022-11-11T08:40:40;10.50;99.90
35240;DHT22;21376;50.954;4.716;2022-11-11T08:43:09;11.00;99.90
35240;DHT22;21376;50.954;4.716;2022-11-11T08:45:44;11.30;99.90
35240;DHT22;21376;50.954;4.716;2022-11-11T08:50:50;13.10;99.90
35240;DHT22;21376;50.954;4.716;2022-11-11T08:53:19;13.60;99.90
35240;DHT22;21376;50.954;4.716;2022-11-11T08:55:53;14.30;99.90
35240;DHT22;21376;50.954;4.716;2022-11-11T08:58:22;14.20;99.90
35240;DHT22;21376;50.954;4.716;2022-11-11T09:00:47;14.40;99.90
35240;DHT22;21376;50.954;4.716;2022-11-11T09:05:45;15.10;99.90
35240;DHT22;21376;50.954;4.716;2022-11-11T09:10:41;15.30;99.90
35240;DHT22;21376;50.954;4.716;2022-11-11T09:13:08;16.30;99.90
35240;DHT22;21376;50.954;4.716;2022-11-11T09:15:33;16.70;99.90
35240;DHT22;21376;50.954;4.716;2022-11-11T09:18:00;16.10;99.90
35240;DHT22;21376;50.954;4.716;2022-11-11T09:22:57;15.20;99.90
35240;DHT22;21376;50.954;4.716;2022-11-11T09:28:04;14.80;99.90
35240;DHT22;21376;50.954;4.716;2022-11-11T09:33:05;14.60;99.90
35240;DHT22;21376;50.954;4.716;2022-11-11T09:38:03;15.00;99.90
35240;DHT22;21376;50.954;4.716;2022-11-11T09:40:42;15.10;99.90
35240;DHT22;21376;50.954;4.716;2022-11-11T09:43:27;15.40;99.90
35240;DHT22;21376;50.954;4.716;2022-11-11T09:51:22;15.10;99.90
35240;DHT22;21376;50.954;4.716;2022-11-11T09:53:53;15.60;99.90
35240;DHT22;21376;50.954;4.716;2022-11-11T09:56:22;14.40;99.90
35240;DHT22;21376;50.954;4.716;2022-11-11T09:59:32;14.50;99.90
35240;DHT22;21376;50.954;4.716;2022-11-11T10:04:18;16.00;99.90
35240;DHT22;21376;50.954;4.716;2022-11-11T10:06:48;16.10;99.90
35240;DHT22;21376;50.954;4.716;2022-11-11T10:14:46;16.60;99.90
35240;DHT22;21376;50.954;4.716;2022-11-11T10:40:46;17.90;99.90
35240;DHT22;21376;50.954;4.716;2022-11-11T10:43:24;16.40;99.90
35240;DHT22;21376;50.954;4.716;2022-11-11T10:45:58;17.70;99.90
35240;DHT22;21376;50.954;4.716;2022-11-11T10:48:34;18.80;99.90
35240;DHT22;21376;50.954;4.716;2022-11-11T10:59:23;20.60;99.90
35240;DHT22;21376;50.954;4.716;2022-11-11T11:02:03;21.80;99.90
35240;DHT22;21376;50.954;4.716;2022-11-11T11:07:25;22.20;99.90
35240;DHT22;21376;50.954;4.716;2022-11-11T11:15:30;19.00;99.90
35240;DHT22;21376;50.954;4.716;2022-11-11T11:18:07;18.50;99.90
35240;DHT22;21376;50.954;4.716;2022-11-11T11:20:36;18.80;99.90
35240;DHT22;21376;50.954;4.716;2022-11-11T11:25:31;17.90;99.90
35240;DHT22;21376;50.954;4.716;2022-11-11T11:31:08;15.70;99.90
35240;DHT22;21376;50.954;4.716;2022-11-11T11:33:52;15.60;99.90
35240;DHT22;21376;50.954;4.716;2022-11-11T11:36:21;15.50;99.90
35240;DHT22;21376;50.954;4.716;2022-11-11T11:38:57;15.70;99.90
35240;DHT22;21376;50.954;4.716;2022-11-11T11:43:53;15.70;99.90
35240;DHT22;21376;50.954;4.716;2022-11-11T11:48:53;16.40;99.90
35240;DHT22;21376;50.954;4.716;2022-11-11T11:51:48;16.40;99.90
35240;DHT22;21376;50.954;4.716;2022-11-11T12:14:35;18.10;99.90
35240;DHT22;21376;50.954;4.716;2022-11-11T12:19:47;18.80;99.90
35240;DHT22;21376;50.954;4.716;2022-11-11T12:27:43;18.50;99.90
35240;DHT22;21376;50.954;4.716;2022-11-11T12:30:19;19.10;99.90
35240;DHT22;21376;50.954;4.716;2022-11-11T12:32:53;19.60;99.90
35240;DHT22;21376;50.954;4.716;2022-11-11T12:38:02;18.80;99.90
35240;DHT22;21376;50.954;4.716;2022-11-11T13:07:33;19.60;99.90
35240;DHT22;21376;50.954;4.716;2022-11-11T13:10:18;19.10;99.90
35240;DHT22;21376;50.954;4.716;2022-11-11T13:15:34;20.00;99.90
35240;DHT22;21376;50.954;4.716;2022-11-11T13:18:09;20.10;99.90
35240;DHT22;21376;50.954;4.716;2022-11-11T13:23:21;20.20;99.90
35240;DHT22;21376;50.954;4.716;2022-11-11T13:28:37;19.80;99.90
35240;DHT22;21376;50.954;4.716;2022-11-11T13:31:15;19.90;99.90
35240;DHT22;21376;50.954;4.716;2022-11-11T13:33:52;19.90;99.90
35240;DHT22;21376;50.954;4.716;2022-11-11T13:36:27;19.40;99.90
35240;DHT22;21376;50.954;4.716;2022-11-11T13:38:54;19.40;99.90
35240;DHT22;21376;50.954;4.716;2022-11-11T13:41:27;19.40;99.90
35240;DHT22;21376;50.954;4.716;2022-11-11T13:43:56;19.00;99.90
35240;DHT22;21376;50.954;4.716;2022-11-11T13:48:52;19.10;99.90
35240;DHT22;21376;50.954;4.716;2022-11-11T13:53:47;19.00;99.90
35240;DHT22;21376;50.954;4.716;2022-11-11T13:56:26;19.00;99.90
35240;DHT22;21376;50.954;4.716;2022-11-11T13:58:52;18.80;99.90
35240;DHT22;21376;50.954;4.716;2022-11-11T14:01:19;18.50;99.90
35240;DHT22;21376;50.954;4.716;2022-11-11T14:11:44;17.70;99.90
35240;DHT22;21376;50.954;4.716;2022-11-11T14:17:11;17.60;99.90
35240;DHT22;21376;50.954;4.716;2022-11-11T14:19:38;17.40;99.90
35240;DHT22;21376;50.954;4.716;2022-11-11T14:24:45;17.20;99.90
35240;DHT22;21376;50.954;4.716;2022-11-11T14:29:47;17.20;99.90
35240;DHT22;21376;50.954;4.716;2022-11-11T14:35:10;16.90;99.90
35240;DHT22;21376;50.954;4.716;2022-11-11T14:40:29;16.80;99.90
35240;DHT22;21376;50.954;4.716;2022-11-11T14:42:55;16.60;99.90
35240;DHT22;21376;50.954;4.716;2022-11-11T14:47:57;16.20;99.90
35240;DHT22;21376;50.954;4.716;2022-11-11T14:53:39;16.00;99.90
35240;DHT22;21376;50.954;4.716;2022-11-11T14:55:53;16.00;99.90
35240;DHT22;21376;50.954;4.716;2022-11-11T14:58:20;15.90;99.90
35240;DHT22;21376;50.954;4.716;2022-11-11T15:03:47;15.80;99.90
35240;DHT22;21376;50.954;4.716;2022-11-11T15:21:36;15.00;99.90
35240;DHT22;21376;50.954;4.716;2022-11-11T15:24:09;14.90;99.90
35240;DHT22;21376;50.954;4.716;2022-11-11T15:37:21;14.00;99.90
35240;DHT22;21376;50.954;4.716;2022-11-11T15:39:49;13.90;99.90
35240;DHT22;21376;50.954;4.716;2022-11-11T15:45:04;14.10;99.90
35240;DHT22;21376;50.954;4.716;2022-11-11T15:47:36;14.00;99.90
35240;DHT22;21376;50.954;4.716;2022-11-11T15:50:02;14.00;99.90
35240;DHT22;21376;50.954;4.716;2022-11-11T15:52:30;13.80;99.90
35240;DHT22;21376;50.954;4.716;2022-11-11T15:54:56;13.70;99.90
35240;DHT22;21376;50.954;4.716;2022-11-11T15:57:32;13.70;99.90
35240;DHT22;21376;50.954;4.716;2022-11-11T15:59:59;13.40;99.90
35240;DHT22;21376;50.954;4.716;2022-11-11T16:02:25;13.30;99.90
35240;DHT22;21376;50.954;4.716;2022-11-11T16:04:55;13.10;99.90
35240;DHT22;21376;50.954;4.716;2022-11-11T16:07:35;12.90;99.90
35240;DHT22;21376;50.954;4.716;2022-11-11T16:10:08;12.90;99.90
35240;DHT22;21376;50.954;4.716;2022-11-11T16:12:43;12.80;99.90
35240;DHT22;21376;50.954;4.716;2022-11-11T16:15:14;12.90;99.90
35240;DHT22;21376;50.954;4.716;2022-11-11T16:17:42;12.80;99.90
35240;DHT22;21376;50.954;4.716;2022-11-11T16:20:14;12.70;99.90
35240;DHT22;21376;50.954;4.716;2022-11-11T16:22:40;12.50;99.90
35240;DHT22;21376;50.954;4.716;2022-11-11T16:25:11;12.50;99.90
35240;DHT22;21376;50.954;4.716;2022-11-11T16:27:38;12.60;99.90
35240;DHT22;21376;50.954;4.716;2022-11-11T16:32:50;12.90;99.90
35240;DHT22;21376;50.954;4.716;2022-11-11T16:35:24;12.90;99.90
35240;DHT22;21376;50.954;4.716;2022-11-11T16:37:51;12.90;99.90
35240;DHT22;21376;50.954;4.716;2022-11-11T16:40:32;12.70;99.90
35240;DHT22;21376;50.954;4.716;2022-11-11T16:43:33;12.60;99.90
35240;DHT22;21376;50.954;4.716;2022-11-11T16:54:26;12.00;99.90
35240;DHT22;21376;50.954;4.716;2022-11-11T16:56:52;12.10;99.90
35240;DHT22;21376;50.954;4.716;2022-11-11T17:01:47;11.60;99.90
35240;DHT22;21376;50.954;4.716;2022-11-11T17:04:23;11.60;99.90
35240;DHT22;21376;50.954;4.716;2022-11-11T17:06:51;11.50;99.90
35240;DHT22;21376;50.954;4.716;2022-11-11T17:11:55;11.30;99.90
35240;DHT22;21376;50.954;4.716;2022-11-11T17:14:21;11.20;99.90
35240;DHT22;21376;50.954;4.716;2022-11-11T17:19:17;11.10;99.90
35240;DHT22;21376;50.954;4.716;2022-11-11T17:21:44;10.90;99.90
35240;DHT22;21376;50.954;4.716;2022-11-11T17:24:09;10.80;99.90
35240;DHT22;21376;50.954;4.716;2022-11-11T17:29:07;10.80;99.90
35240;DHT22;21376;50.954;4.716;2022-11-11T17:31:51;10.70;99.90
35240;DHT22;21376;50.954;4.716;2022-11-11T17:34:17;10.50;99.90
35240;DHT22;21376;50.954;4.716;2022-11-11T17:39:46;10.30;99.90
35240;DHT22;21376;50.954;4.716;2022-11-11T17:42:15;10.20;99.90
35240;DHT22;21376;50.954;4.716;2022-11-11T17:44:41;10.10;99.90
35240;DHT22;21376;50.954;4.716;2022-11-11T17:47:08;10.10;99.90
35240;DHT22;21376;50.954;4.716;2022-11-11T17:49:33;10.00;99.90
35240;DHT22;21376;50.954;4.716;2022-11-11T18:02:38;9.70;99.90
35240;DHT22;21376;50.954;4.716;2022-11-11T18:05:07;9.70;99.90
35240;DHT22;21376;50.954;4.716;2022-11-11T18:07:39;9.70;99.90
35240;DHT22;21376;50.954;4.716;2022-11-11T18:10:07;9.60;99.90
35240;DHT22;21376;50.954;4.716;2022-11-11T18:12:36;9.50;99.90
35240;DHT22;21376;50.954;4.716;2022-11-11T18:15:18;9.60;99.90
35240;DHT22;21376;50.954;4.716;2022-11-11T18:17:47;9.60;99.90
35240;DHT22;21376;50.954;4.716;2022-11-11T18:20:31;9.50;99.90
35240;DHT22;21376;50.954;4.716;2022-11-11T18:23:00;9.40;99.90
35240;DHT22;21376;50.954;4.716;2022-11-11T18:27:57;9.30;99.90
35240;DHT22;21376;50.954;4.716;2022-11-11T18:30:26;9.20;99.90
35240;DHT22;21376;50.954;4.716;2022-11-11T18:32:55;9.20;99.90
35240;DHT22;21376;50.954;4.716;2022-11-11T18:38:23;9.20;99.90
35240;DHT22;21376;50.954;4.716;2022-11-11T18:40:59;9.10;99.90
35240;DHT22;21376;50.954;4.716;2022-11-11T18:43:30;8.90;99.90
35240;DHT22;21376;50.954;4.716;2022-11-11T18:49:01;9.20;99.90
35240;DHT22;21376;50.954;4.716;2022-11-11T18:51:31;9.10;99.90
35240;DHT22;21376;50.954;4.716;2022-11-11T18:54:02;8.90;99.90
35240;DHT22;21376;50.954;4.716;2022-11-11T18:59:29;8.80;99.90
35240;DHT22;21376;50.954;4.716;2022-11-11T19:04:26;8.50;99.90
35240;DHT22;21376;50.954;4.716;2022-11-11T19:06:53;8.60;99.90
35240;DHT22;21376;50.954;4.716;2022-11-11T19:09:21;8.70;99.90
35240;DHT22;21376;50.954;4.716;2022-11-11T19:14:41;8.60;99.90
35240;DHT22;21376;50.954;4.716;2022-11-11T19:25:13;8.30;99.90
35240;DHT22;21376;50.954;4.716;2022-11-11T19:27:39;8.20;99.90
35240;DHT22;21376;50.954;4.716;2022-11-11T19:30:05;8.20;99.90
35240;DHT22;21376;50.954;4.716;2022-11-11T19:32:31;8.30;99.90
35240;DHT22;21376;50.954;4.716;2022-11-11T19:34:57;8.30;99.90
35240;DHT22;21376;50.954;4.716;2022-11-11T19:39:54;8.00;99.90
35240;DHT22;21376;50.954;4.716;2022-11-11T19:44:49;7.80;99.90
35240;DHT22;21376;50.954;4.716;2022-11-11T19:50:12;7.70;99.90
35240;DHT22;21376;50.954;4.716;2022-11-11T19:52:40;7.80;99.90
35240;DHT22;21376;50.954;4.716;2022-11-11T19:55:08;7.70;99.90
35240;DHT22;21376;50.954;4.716;2022-11-11T19:57:35;7.90;99.90
35240;DHT22;21376;50.954;4.716;2022-11-11T20:00:13;7.70;99.90
35240;DHT22;21376;50.954;4.716;2022-11-11T20:05:13;7.70;99.90
35240;DHT22;21376;50.954;4.716;2022-11-11T20:07:42;7.70;99.90
35240;DHT22;21376;50.954;4.716;2022-11-11T20:10:08;7.60;99.90
35240;DHT22;21376;50.954;4.716;2022-11-11T20:12:36;7.50;99.90
35240;DHT22;21376;50.954;4.716;2022-11-11T20:20:03;7.50;99.90
35240;DHT22;21376;50.954;4.716;2022-11-11T20:22:31;7.60;99.90
35240;DHT22;21376;50.954;4.716;2022-11-11T20:24:57;7.50;99.90
35240;DHT22;21376;50.954;4.716;2022-11-11T20:50:06;7.00;99.90
35240;DHT22;21376;50.954;4.716;2022-11-11T20:52:35;7.10;99.90
35240;DHT22;21376;50.954;4.716;2022-11-11T20:55:02;7.00;99.90
35240;DHT22;21376;50.954;4.716;2022-11-11T21:05:47;6.80;99.90
35240;DHT22;21376;50.954;4.716;2022-11-11T21:08:13;6.80;99.90
35240;DHT22;21376;50.954;4.716;2022-11-11T21:10:43;6.80;99.90
35240;DHT22;21376;50.954;4.716;2022-11-11T21:13:12;6.70;99.90
35240;DHT22;21376;50.954;4.716;2022-11-11T21:24:14;6.80;99.90
35240;DHT22;21376;50.954;4.716;2022-11-11T21:26:42;6.70;99.90
35240;DHT22;21376;50.954;4.716;2022-11-11T21:29:11;6.70;99.90
35240;DHT22;21376;50.954;4.716;2022-11-11T21:31:45;6.70;99.90
35240;DHT22;21376;50.954;4.716;2022-11-11T21:34:11;6.70;99.90
35240;DHT22;21376;50.954;4.716;2022-11-11T21:39:09;6.60;99.90
35240;DHT22;21376;50.954;4.716;2022-11-11T21:44:06;6.50;99.90
35240;DHT22;21376;50.954;4.716;2022-11-11T21:46:33;6.60;99.90
35240;DHT22;21376;50.954;4.716;2022-11-11T21:49:02;6.60;99.90
35240;DHT22;21376;50.954;4.716;2022-11-11T21:54:13;6.60;99.90
35240;DHT22;21376;50.954;4.716;2022-11-11T21:59:59;6.40;99.90
35240;DHT22;21376;50.954;4.716;2022-11-11T22:02:33;6.30;99.90
35240;DHT22;21376;50.954;4.716;2022-11-11T22:05:01;6.20;99.90
35240;DHT22;21376;50.954;4.716;2022-11-11T22:07:30;6.20;99.90
35240;DHT22;21376;50.954;4.716;2022-11-11T22:09:58;6.40;99.90
35240;DHT22;21376;50.954;4.716;2022-11-11T22:12:27;6.60;99.90
35240;DHT22;21376;50.954;4.716;2022-11-11T22:15:02;6.50;99.90
35240;DHT22;21376;50.954;4.716;2022-11-11T22:20:44;6.40;99.90
35240;DHT22;21376;50.954;4.716;2022-11-11T22:23:10;6.40;99.90
35240;DHT22;21376;50.954;4.716;2022-11-11T22:25:35;6.40;99.90
35240;DHT22;21376;50.954;4.716;2022-11-11T22:28:04;6.20;99.90
35240;DHT22;21376;50.954;4.716;2022-11-11T22:32:58;6.10;99.90
35240;DHT22;21376;50.954;4.716;2022-11-11T22:37:56;6.20;99.90
35240;DHT22;21376;50.954;4.716;2022-11-11T22:40:22;6.20;99.90
35240;DHT22;21376;50.954;4.716;2022-11-11T22:42:51;6.20;99.90
35240;DHT22;21376;50.954;4.716;2022-11-11T22:45:19;6.20;99.90
35240;DHT22;21376;50.954;4.716;2022-11-11T22:47:48;6.10;99.90
35240;DHT22;21376;50.954;4.716;2022-11-11T22:50:19;6.10;99.90
35240;DHT22;21376;50.954;4.716;2022-11-11T22:52:51;6.10;99.90
35240;DHT22;21376;50.954;4.716;2022-11-11T22:58:05;6.10;99.90
35240;DHT22;21376;50.954;4.716;2022-11-11T23:00:34;6.10;99.90
35240;DHT22;21376;50.954;4.716;2022-11-11T23:03:05;6.10;99.90
35240;DHT22;21376;50.954;4.716;2022-11-11T23:05:31;6.30;99.90
35240;DHT22;21376;50.954;4.716;2022-11-11T23:07:57;6.00;99.90
35240;DHT22;21376;50.954;4.716;2022-11-11T23:13:12;6.10;99.90
35240;DHT22;21376;50.954;4.716;2022-11-11T23:15:49;5.80;99.90
35240;DHT22;21376;50.954;4.716;2022-11-11T23:18:18;5.90;99.90
35240;DHT22;21376;50.954;4.716;2022-11-11T23:23:12;5.70;99.90
35240;DHT22;21376;50.954;4.716;2022-11-11T23:25:39;5.60;99.90
35240;DHT22;21376;50.954;4.716;2022-11-11T23:28:10;5.60;99.90
35240;DHT22;21376;50.954;4.716;2022-11-11T23:30:39;5.70;99.90
35240;DHT22;21376;50.954;4.716;2022-11-11T23:33:08;5.70;99.90
35240;DHT22;21376;50.954;4.716;2022-11-11T23:35:35;5.70;99.90
35240;DHT22;21376;50.954;4.716;2022-11-11T23:38:04;5.70;99.90
35240;DHT22;21376;50.954;4.716;2022-11-11T23:43:27;5.50;99.90
35240;DHT22;21376;50.954;4.716;2022-11-11T23:45:56;5.50;99.90
35240;DHT22;21376;50.954;4.716;2022-11-11T23:48:28;5.50;99.90
35240;DHT22;21376;50.954;4.716;2022-11-11T23:50:55;5.50;99.90
35240;DHT22;21376;50.954;4.716;2022-11-11T23:55:53;6.00;99.90
35240;DHT22;21376;50.954;4.716;2022-11-11T23:58:22;6.00;99.90
